MUVR/VRA METAR and TAF weather

Enter ICAO airport designator
Station Type Date Time Source
MUVR METAR 2019/08/23 15:50 UTC NOAA

MUVR 231550Z VRB02KT 9000 SCT020 30/23 Q1015


Station Type Date Time Source
MUVR Decoded METAR 2019/08/23 15:50 UTC NOAA

Station name not available
Aug 23, 2019 - 11:50 AM EDT / 2019.08.23 1550 UTC
Wind: Variable at 2 MPH (2 KT):0
Visibility: 5 mile(s):0
Sky conditions: partly cloudy
Temperature: 86 F (30 C)
Heat index: 93.4 F (34.1 C):1
Dew Point: 73 F (23 C)
Relative Humidity: 66%
Pressure (altimeter): 29.97 in. Hg (1015 hPa)
ob: MUVR 231550Z VRB02KT 9000 SCT020 30/23 Q1015
cycle: 16

Station Type Date Time Source
MUVR TAF 2019/08/23 12:03 UTC NOAA

TAF TAF MUVR 231100Z 2312/2412 VRB03KT 9000 SCT020
TEMPO 2318/2324 VRB10KT 3000 TSRA SCT018CB BKN020

Example: see airport list